Terminal Aerodrome Forecast
Issued by NWS

Home | Current Version | Previous Version | Text Only | Print | Product List | Glossary On
Versions: 1 2 3 4 5 6 7 8 9 10 11 12 13 14 15 16
000
FTUS43 KGLD 210536
TAFMCK
TAF
KMCK 210536Z 2106/2206 VRB04KT P6SM SKC WS020/20040KT
     FM211000 18005KT P6SM SKC WS020/23035KT
     FM211100 18005KT P6SM SKC
     FM211600 24009KT P6SM SKC
     FM211800 27009KT P6SM SKC
     FM211900 30010KT P6SM SKC
     FM212100 03011KT P6SM SCT100=

USA.gov is the U.S. government's official web portal to all federal, state and local government web resources and services.